Time;durP1;ratioP1;P1;durP2;ratioP2;P2;SDS_P1;SDS_P2;PMS_P1;PMS_P2;Temp;Humidity;BMP_temperature;BMP_pressure;BME280_temperature;BME280_humidity;BME280_pressure;Samples;Min_cycle;Max_cycle;Signal;HPM_P1;HPM_P2
2022/03/17 00:00:45;;;;;;;0.30;0.30;;;;;;;;;;5070200;28;20024;-60
2022/03/17 00:03:10;;;;;;;0.32;0.32;;;;;;;;;;5070050;28;20467;-61
2022/03/17 00:05:37;;;;;;;0.10;0.10;;;;;;;;;;5087309;28;20071;-61
2022/03/17 00:08:03;;;;;;;0.30;0.30;;;;;;;;;;5087828;28;20356;-60
2022/03/17 00:10:29;;;;;;;0.28;0.28;;;;;;;;;;5070562;28;20551;-61
2022/03/17 00:12:55;;;;;;;0.20;0.20;;;;;;;;;;5087853;28;20111;-62
2022/03/17 00:15:20;;;;;;;0.30;0.30;;;;;;;;;;5086762;28;20036;-62
2022/03/17 00:17:46;;;;;;;1.95;1.85;;;;;;;;;;5091521;28;20031;-60
2022/03/17 00:20:12;;;;;;;0.20;0.20;;;;;;;;;;5056322;28;20086;-60
2022/03/17 00:22:38;;;;;;;0.20;0.20;;;;;;;;;;5056790;28;20036;-61
2022/03/17 00:25:05;;;;;;;0.55;0.55;;;;;;;;;;5072474;28;20113;-60
2022/03/17 00:27:31;;;;;;;0.30;0.30;;;;;;;;;;5056712;28;20031;-61
2022/03/17 00:29:57;;;;;;;2.15;2.05;;;;;;;;;;5055680;28;20028;-60
2022/03/17 00:32:23;;;;;;;0.20;0.20;;;;;;;;;;5073017;28;20024;-60
2022/03/17 00:37:32;;;;;;;2.92;2.83;;;;;;;;;;5090768;28;20068;-61
2022/03/17 00:39:58;;;;;;;7.32;3.20;;;;;;;;;;5090766;28;20077;-60
2022/03/17 00:42:24;;;;;;;0.20;0.20;;;;;;;;;;5073301;28;20170;-60
2022/03/17 00:44:50;;;;;;;0.20;0.20;;;;;;;;;;5073184;28;20115;-61
2022/03/17 00:47:16;;;;;;;0.30;0.30;;;;;;;;;;5050436;28;20063;-61
2022/03/17 00:49:41;;;;;;;0.30;0.30;;;;;;;;;;5088117;28;20442;-60
2022/03/17 00:52:10;;;;;;;0.30;0.30;;;;;;;;;;5090588;28;20032;-60
2022/03/17 00:54:39;;;;;;;0.57;0.57;;;;;;;;;;5072202;28;20081;-62
2022/03/17 00:57:05;;;;;;;0.30;0.30;;;;;;;;;;5052197;28;20055;-61
2022/03/17 00:59:31;;;;;;;0.30;0.30;;;;;;;;;;5059777;28;20032;-60
2022/03/17 01:01:56;;;;;;;0.20;0.20;;;;;;;;;;5078387;28;20040;-61
2022/03/17 01:04:21;;;;;;;0.20;0.20;;;;;;;;;;5071029;28;20037;-61
2022/03/17 01:06:47;;;;;;;0.30;0.30;;;;;;;;;;5070930;28;20035;-60
2022/03/17 01:09:13;;;;;;;0.30;0.30;;;;;;;;;;5053362;28;20040;-60
2022/03/17 01:11:38;;;;;;;0.30;0.30;;;;;;;;;;5053123;28;20068;-60
2022/03/17 01:14:03;;;;;;;0.20;0.20;;;;;;;;;;5071253;28;20480;-60
2022/03/17 01:16:29;;;;;;;0.20;0.20;;;;;;;;;;5071372;28;20054;-60
2022/03/17 01:18:54;;;;;;;0.20;0.20;;;;;;;;;;5053136;28;20438;-61
2022/03/17 01:21:20;;;;;;;0.30;0.30;;;;;;;;;;5053225;28;20481;-61
2022/03/17 01:23:45;;;;;;;0.20;0.20;;;;;;;;;;5052135;28;20366;-62
2022/03/17 01:26:11;;;;;;;2.90;2.80;;;;;;;;;;5070629;28;20033;-60
2022/03/17 01:28:36;;;;;;;3.38;3.05;;;;;;;;;;5071050;28;20039;-60
2022/03/17 01:31:02;;;;;;;12.80;11.80;;;;;;;;;;5071075;28;20119;-60
2022/03/17 01:33:27;;;;;;;0.15;0.15;;;;;;;;;;5071357;28;20039;-61
2022/03/17 01:35:53;;;;;;;0.30;0.30;;;;;;;;;;5070352;28;20044;-60
2022/03/17 01:38:18;;;;;;;1.10;1.10;;;;;;;;;;5071283;28;20040;-60
2022/03/17 01:40:44;;;;;;;0.15;0.15;;;;;;;;;;5071909;28;20060;-61
2022/03/17 01:43:10;;;;;;;0.20;0.20;;;;;;;;;;5040431;28;20021;-62
2022/03/17 01:45:36;;;;;;;0.25;0.25;;;;;;;;;;5074327;28;20403;-61
2022/03/17 01:48:02;;;;;;;0.30;0.30;;;;;;;;;;5074675;28;20479;-60
2022/03/17 01:50:28;;;;;;;0.28;0.28;;;;;;;;;;5040329;28;20041;-60
2022/03/17 01:52:53;;;;;;;0.20;0.20;;;;;;;;;;5073703;28;20020;-61
2022/03/17 01:55:19;;;;;;;0.20;0.20;;;;;;;;;;5055157;28;20128;-61
2022/03/17 01:57:45;;;;;;;0.20;0.20;;;;;;;;;;5039496;28;20033;-60
2022/03/17 02:00:13;;;;;;;0.20;0.20;;;;;;;;;;5074225;28;20027;-61
2022/03/17 02:02:43;;;;;;;0.20;0.20;;;;;;;;;;5056367;28;20036;-60
2022/03/17 02:05:09;;;;;;;0.20;0.20;;;;;;;;;;5055311;28;20060;-60
2022/03/17 02:07:34;;;;;;;0.25;0.25;;;;;;;;;;5074341;28;20742;-60
2022/03/17 02:10:00;;;;;;;1.25;1.25;;;;;;;;;;5074237;28;20100;-60
2022/03/17 02:15:10;;;;;;;0.20;0.20;;;;;;;;;;5056096;28;20410;-59
2022/03/17 02:17:39;;;;;;;0.20;0.20;;;;;;;;;;5074388;28;20036;-60
2022/03/17 02:20:06;;;;;;;1.05;1.00;;;;;;;;;;5056180;28;20044;-61
2022/03/17 02:22:31;;;;;;;1.65;1.55;;;;;;;;;;5038478;28;20038;-60
2022/03/17 02:27:45;;;;;;;0.20;0.20;;;;;;;;;;5056136;28;20044;-60
2022/03/17 02:30:12;;;;;;;1.17;1.17;;;;;;;;;;5054494;28;20115;-61
2022/03/17 02:32:37;;;;;;;1.33;1.33;;;;;;;;;;5054018;28;20036;-60
2022/03/17 02:35:04;;;;;;;0.20;0.20;;;;;;;;;;5071972;28;20041;-61
2022/03/17 02:37:30;;;;;;;0.20;0.20;;;;;;;;;;5038985;28;20029;-60
2022/03/17 02:39:56;;;;;;;0.20;0.20;;;;;;;;;;5053966;28;20020;-60
2022/03/17 02:42:21;;;;;;;0.30;0.30;;;;;;;;;;5071958;28;20086;-60
2022/03/17 02:44:48;;;;;;;0.20;0.20;;;;;;;;;;5071501;28;20439;-61
2022/03/17 02:47:14;;;;;;;0.20;0.20;;;;;;;;;;5054836;28;20132;-60
2022/03/17 02:49:40;;;;;;;0.20;0.20;;;;;;;;;;5054979;28;20487;-61
2022/03/17 02:52:06;;;;;;;0.20;0.20;;;;;;;;;;5072291;28;20024;-61
2022/03/17 02:54:31;;;;;;;0.20;0.20;;;;;;;;;;5073209;28;20506;-60
2022/03/17 02:56:57;;;;;;;0.88;0.88;;;;;;;;;;5073151;28;20044;-60
2022/03/17 02:59:22;;;;;;;0.20;0.20;;;;;;;;;;5059913;28;20548;-61
2022/03/17 03:01:48;;;;;;;0.20;0.20;;;;;;;;;;5063771;28;20031;-60
2022/03/17 03:04:16;;;;;;;0.20;0.20;;;;;;;;;;5072653;28;20037;-61
2022/03/17 03:06:42;;;;;;;0.20;0.20;;;;;;;;;;5038237;28;20047;-60
2022/03/17 03:09:07;;;;;;;0.30;0.30;;;;;;;;;;5037686;28;20028;-61
2022/03/17 03:11:33;;;;;;;0.20;0.20;;;;;;;;;;5052966;28;20041;-60
2022/03/17 03:13:58;;;;;;;0.28;0.28;;;;;;;;;;5050962;28;20029;-60
2022/03/17 03:16:24;;;;;;;0.17;0.17;;;;;;;;;;5051994;28;20047;-59
2022/03/17 03:18:49;;;;;;;0.20;0.20;;;;;;;;;;5053168;28;20040;-60
2022/03/17 03:21:15;;;;;;;0.20;0.20;;;;;;;;;;5018429;28;20041;-60
2022/03/17 03:23:40;;;;;;;0.85;0.85;;;;;;;;;;5052998;28;20045;-60
2022/03/17 03:26:06;;;;;;;0.10;0.10;;;;;;;;;;5052851;28;20128;-60
2022/03/17 03:28:31;;;;;;;0.47;0.47;;;;;;;;;;5053112;28;20063;-60
2022/03/17 03:30:57;;;;;;;0.13;0.13;;;;;;;;;;5034816;28;20504;-59
2022/03/17 03:33:22;;;;;;;0.20;0.20;;;;;;;;;;5052436;28;20033;-60
2022/03/17 03:38:32;;;;;;;0.20;0.20;;;;;;;;;;5053031;28;20056;-60
2022/03/17 03:40:59;;;;;;;0.20;0.20;;;;;;;;;;5052763;28;20069;-60
2022/03/17 03:43:25;;;;;;;0.15;0.15;;;;;;;;;;5018484;28;20033;-62
2022/03/17 03:45:50;;;;;;;0.20;0.20;;;;;;;;;;5052464;28;20465;-60
2022/03/17 03:48:16;;;;;;;0.20;0.20;;;;;;;;;;5052714;28;20059;-60
2022/03/17 03:50:42;;;;;;;0.20;0.20;;;;;;;;;;5017939;28;20514;-60
2022/03/17 03:53:07;;;;;;;0.20;0.20;;;;;;;;;;5052036;28;20032;-61
2022/03/17 03:55:33;;;;;;;0.20;0.20;;;;;;;;;;5050732;28;20043;-59
2022/03/17 03:57:59;;;;;;;0.10;0.10;;;;;;;;;;5052470;28;20116;-61
2022/03/17 04:02:55;;;;;;;0.15;0.15;;;;;;;;;;5054141;28;20020;-60
2022/03/17 04:05:24;;;;;;;0.50;0.50;;;;;;;;;;5049841;28;20041;-60
2022/03/17 04:07:51;;;;;;;4.05;1.95;;;;;;;;;;5050470;28;20124;-60
2022/03/17 04:10:16;;;;;;;0.20;0.20;;;;;;;;;;5049949;28;20020;-62
2022/03/17 04:12:42;;;;;;;0.15;0.15;;;;;;;;;;5068841;28;20480;-61
2022/03/17 04:15:08;;;;;;;0.10;0.10;;;;;;;;;;5068281;28;20047;-60
2022/03/17 04:17:33;;;;;;;0.68;0.68;;;;;;;;;;5049936;28;20618;-59
2022/03/17 04:19:59;;;;;;;0.20;0.20;;;;;;;;;;5033612;28;20691;-60
2022/03/17 04:22:24;;;;;;;0.10;0.10;;;;;;;;;;5067502;28;20025;-62
2022/03/17 04:24:50;;;;;;;0.20;0.20;;;;;;;;;;5066697;28;20039;-61
2022/03/17 04:27:15;;;;;;;0.30;0.30;;;;;;;;;;5068325;28;20085;-61
2022/03/17 04:29:42;;;;;;;0.20;0.20;;;;;;;;;;5067983;28;20031;-61
2022/03/17 04:32:09;;;;;;;0.20;0.20;;;;;;;;;;5049971;28;20040;-61
2022/03/17 04:34:34;;;;;;;0.20;0.20;;;;;;;;;;5032883;28;20104;-64
2022/03/17 04:37:00;;;;;;;0.20;0.20;;;;;;;;;;5068324;28;20032;-60
2022/03/17 04:39:26;;;;;;;0.20;0.20;;;;;;;;;;5067730;28;20028;-59
2022/03/17 04:41:51;;;;;;;0.40;0.40;;;;;;;;;;5048659;28;20577;-60
2022/03/17 04:44:17;;;;;;;0.28;0.28;;;;;;;;;;5066368;28;20033;-61
2022/03/17 04:46:42;;;;;;;0.20;0.20;;;;;;;;;;5048486;28;20056;-60
2022/03/17 04:49:09;;;;;;;0.20;0.20;;;;;;;;;;5032475;28;20036;-60
2022/03/17 04:51:35;;;;;;;0.15;0.15;;;;;;;;;;5032542;28;20518;-61
2022/03/17 04:54:00;;;;;;;0.20;0.20;;;;;;;;;;5067667;28;20030;-61
2022/03/17 04:56:26;;;;;;;0.20;0.20;;;;;;;;;;5066883;28;20040;-60
2022/03/17 04:58:51;;;;;;;0.30;0.30;;;;;;;;;;5071993;28;20063;-61
2022/03/17 05:01:17;;;;;;;0.20;0.20;;;;;;;;;;5075340;28;20595;-61
2022/03/17 05:03:43;;;;;;;0.30;0.30;;;;;;;;;;5033082;28;20089;-60
2022/03/17 05:06:12;;;;;;;0.20;0.20;;;;;;;;;;5066914;28;20146;-61
2022/03/17 05:08:38;;;;;;;0.20;0.20;;;;;;;;;;5031372;28;20403;-64
2022/03/17 05:11:10;;;;;;;0.20;0.20;;;;;;;;;;5050402;28;20111;-62
2022/03/17 05:13:39;;;;;;;0.15;0.15;;;;;;;;;;5048171;28;20047;-60
2022/03/17 05:16:06;;;;;;;0.30;0.30;;;;;;;;;;5048902;28;20036;-61
2022/03/17 05:18:31;;;;;;;0.10;0.10;;;;;;;;;;5034753;28;20036;-60
2022/03/17 05:20:57;;;;;;;0.20;0.20;;;;;;;;;;5051262;28;20594;-60
2022/03/17 05:23:22;;;;;;;0.13;0.13;;;;;;;;;;5051316;28;20025;-64
2022/03/17 05:25:49;;;;;;;0.20;0.20;;;;;;;;;;5069222;28;20032;-60
2022/03/17 05:28:14;;;;;;;0.20;0.20;;;;;;;;;;5069432;28;20048;-60
2022/03/17 05:30:41;;;;;;;0.20;0.20;;;;;;;;;;5051914;28;20036;-60
2022/03/17 05:33:07;;;;;;;0.20;0.20;;;;;;;;;;5035977;28;20026;-61
2022/03/17 05:35:33;;;;;;;0.20;0.20;;;;;;;;;;5034077;28;20032;-61
2022/03/17 05:38:00;;;;;;;0.20;0.20;;;;;;;;;;5050278;28;20036;-60
2022/03/17 05:40:26;;;;;;;0.20;0.20;;;;;;;;;;5050174;28;20117;-60
2022/03/17 05:42:53;;;;;;;0.20;0.20;;;;;;;;;;5067912;28;20461;-60
2022/03/17 05:45:20;;;;;;;0.20;0.20;;;;;;;;;;5049722;28;20064;-61
2022/03/17 05:47:47;;;;;;;0.20;0.20;;;;;;;;;;5033795;28;20086;-62
2022/03/17 05:50:13;;;;;;;0.20;0.20;;;;;;;;;;5037162;28;20056;-61
2022/03/17 05:52:39;;;;;;;0.20;0.20;;;;;;;;;;5076953;28;20070;-60
2022/03/17 05:55:06;;;;;;;0.30;0.30;;;;;;;;;;5052986;28;20039;-61
2022/03/17 05:57:33;;;;;;;0.20;0.20;;;;;;;;;;5068478;28;20091;-61
2022/03/17 05:59:58;;;;;;;0.20;0.20;;;;;;;;;;5068714;28;20586;-62
2022/03/17 06:02:24;;;;;;;0.20;0.20;;;;;;;;;;5068776;28;20040;-61
2022/03/17 06:04:49;;;;;;;0.22;0.22;;;;;;;;;;5067378;28;20553;-61
2022/03/17 06:07:15;;;;;;;0.20;0.20;;;;;;;;;;5067340;28;20024;-60
2022/03/17 06:09:40;;;;;;;0.15;0.15;;;;;;;;;;5067908;28;20111;-62
2022/03/17 06:12:06;;;;;;;0.20;0.20;;;;;;;;;;5067515;28;20615;-64
2022/03/17 06:14:32;;;;;;;6.80;6.32;;;;;;;;;;5068033;28;20028;-62
2022/03/17 06:16:58;;;;;;;0.20;0.20;;;;;;;;;;5049493;28;20082;-60
2022/03/17 06:19:23;;;;;;;0.20;0.20;;;;;;;;;;5067478;28;20115;-61
2022/03/17 06:21:49;;;;;;;0.20;0.20;;;;;;;;;;5067585;28;20028;-60
2022/03/17 06:24:14;;;;;;;0.20;0.20;;;;;;;;;;5066985;28;20040;-60
2022/03/17 06:26:40;;;;;;;0.30;0.30;;;;;;;;;;5068113;28;20039;-61
2022/03/17 06:29:05;;;;;;;0.20;0.20;;;;;;;;;;5032467;28;20098;-61
2022/03/17 06:31:31;;;;;;;0.30;0.30;;;;;;;;;;5051921;28;20059;-65
2022/03/17 06:33:57;;;;;;;0.90;0.65;;;;;;;;;;5088836;28;20039;-63
2022/03/17 06:36:23;;;;;;;0.30;0.30;;;;;;;;;;5069584;28;20162;-62
2022/03/17 06:38:48;;;;;;;0.22;0.22;;;;;;;;;;5069731;28;20135;-61
2022/03/17 06:41:14;;;;;;;0.20;0.20;;;;;;;;;;5088371;28;20028;-61
2022/03/17 06:43:39;;;;;;;0.20;0.20;;;;;;;;;;5053201;28;20035;-61
2022/03/17 06:46:05;;;;;;;0.20;0.20;;;;;;;;;;5088323;28;20032;-62
2022/03/17 06:48:30;;;;;;;0.30;0.30;;;;;;;;;;5087961;28;20096;-61
2022/03/17 06:50:57;;;;;;;0.20;0.20;;;;;;;;;;5088135;28;20418;-61
2022/03/17 06:53:22;;;;;;;0.55;0.55;;;;;;;;;;5087912;28;20507;-61
2022/03/17 06:55:48;;;;;;;0.45;0.45;;;;;;;;;;5088376;28;20035;-60
2022/03/17 06:58:13;;;;;;;0.30;0.30;;;;;;;;;;5088031;28;20492;-61
2022/03/17 07:00:39;;;;;;;0.30;0.30;;;;;;;;;;5087766;28;20082;-61
2022/03/17 07:03:04;;;;;;;0.30;0.30;;;;;;;;;;5087705;28;20039;-61
2022/03/17 07:05:29;;;;;;;0.20;0.20;;;;;;;;;;5087630;28;20114;-63
2022/03/17 07:07:55;;;;;;;0.30;0.30;;;;;;;;;;5086772;28;20100;-61
2022/03/17 07:10:20;;;;;;;0.50;0.50;;;;;;;;;;5087740;28;20043;-61
2022/03/17 07:12:47;;;;;;;0.20;0.20;;;;;;;;;;5087529;28;20122;-60
2022/03/17 07:15:12;;;;;;;0.20;0.20;;;;;;;;;;5087401;28;20024;-61
2022/03/17 07:17:41;;;;;;;0.20;0.20;;;;;;;;;;5087637;28;20039;-59
2022/03/17 07:20:10;;;;;;;0.20;0.20;;;;;;;;;;5087441;28;20073;-60
2022/03/17 07:22:35;;;;;;;0.25;0.25;;;;;;;;;;5087460;28;20050;-61
2022/03/17 07:25:02;;;;;;;0.20;0.20;;;;;;;;;;5087917;28;20334;-61
2022/03/17 07:27:30;;;;;;;0.13;0.13;;;;;;;;;;5087221;28;20036;-61
2022/03/17 07:29:56;;;;;;;0.10;0.10;;;;;;;;;;5087243;28;20089;-60
2022/03/17 07:32:24;;;;;;;0.20;0.20;;;;;;;;;;5085751;28;20375;-61
2022/03/17 07:34:50;;;;;;;0.15;0.15;;;;;;;;;;5086932;28;20395;-61
2022/03/17 07:37:16;;;;;;;0.20;0.20;;;;;;;;;;5086393;28;20040;-60
2022/03/17 07:39:42;;;;;;;0.20;0.20;;;;;;;;;;5086378;28;20071;-60
2022/03/17 07:42:09;;;;;;;0.13;0.13;;;;;;;;;;5086103;28;20111;-60
2022/03/17 07:44:54;;;;;;;0.20;0.20;;;;;;;;;;5086504;28;20448;-61
2022/03/17 07:47:47;;;;;;;0.10;0.10;;;;;;;;;;5086766;28;20119;-60
2022/03/17 07:50:13;;;;;;;0.20;0.20;;;;;;;;;;5087062;28;20410;-61
2022/03/17 07:52:38;;;;;;;0.52;0.52;;;;;;;;;;5086895;28;20028;-61
2022/03/17 07:55:04;;;;;;;0.20;0.20;;;;;;;;;;5086149;28;20032;-60
2022/03/17 07:57:30;;;;;;;0.10;0.10;;;;;;;;;;5085689;28;20126;-61
2022/03/17 07:59:56;;;;;;;0.30;0.30;;;;;;;;;;5068661;28;20057;-60
2022/03/17 08:02:21;;;;;;;0.20;0.20;;;;;;;;;;5086625;28;20032;-61
2022/03/17 08:04:50;;;;;;;0.20;0.20;;;;;;;;;;5086827;28;20036;-60
2022/03/17 08:07:15;;;;;;;0.20;0.20;;;;;;;;;;5069098;28;20054;-61
2022/03/17 08:09:41;;;;;;;0.20;0.20;;;;;;;;;;5086896;28;20036;-61
2022/03/17 08:12:07;;;;;;;0.20;0.20;;;;;;;;;;5085525;28;20062;-60
2022/03/17 08:14:32;;;;;;;0.20;0.20;;;;;;;;;;5086470;28;20028;-60
2022/03/17 08:16:58;;;;;;;0.20;0.20;;;;;;;;;;5086397;28;20039;-61
2022/03/17 08:19:24;;;;;;;0.22;0.22;;;;;;;;;;5085628;28;20075;-61
2022/03/17 08:21:50;;;;;;;0.22;0.22;;;;;;;;;;5086298;28;20782;-61
2022/03/17 08:24:15;;;;;;;0.20;0.20;;;;;;;;;;5085466;28;20036;-61
2022/03/17 08:26:40;;;;;;;0.20;0.20;;;;;;;;;;5086599;28;20070;-61
2022/03/17 08:29:06;;;;;;;0.20;0.20;;;;;;;;;;5086564;28;20120;-60
2022/03/17 08:31:32;;;;;;;0.47;0.47;;;;;;;;;;5086354;28;20530;-60
2022/03/17 08:33:57;;;;;;;0.40;0.40;;;;;;;;;;5085318;28;20025;-61
2022/03/17 08:36:23;;;;;;;0.25;0.25;;;;;;;;;;5085121;28;20499;-61
2022/03/17 08:38:51;;;;;;;0.20;0.20;;;;;;;;;;5085530;28;20028;-61
2022/03/17 08:41:16;;;;;;;0.40;0.40;;;;;;;;;;5086189;28;20066;-61
2022/03/17 08:43:42;;;;;;;0.30;0.30;;;;;;;;;;5085316;28;20064;-61
2022/03/17 08:51:36;;;;;;;0.20;0.20;;;;;;;;;;5067043;28;20106;-61
2022/03/17 08:54:01;;;;;;;0.25;0.25;;;;;;;;;;5085890;28;20034;-60
2022/03/17 08:56:28;;;;;;;0.30;0.30;;;;;;;;;;5085120;28;20467;-62
2022/03/17 08:58:54;;;;;;;0.30;0.30;;;;;;;;;;5084076;28;20013;-62
2022/03/17 09:01:20;;;;;;;0.30;0.30;;;;;;;;;;5078783;28;20043;-61
2022/03/17 09:03:45;;;;;;;0.40;0.40;;;;;;;;;;5066546;28;20078;-62
2022/03/17 09:06:11;;;;;;;0.30;0.30;;;;;;;;;;5064683;28;20020;-62
2022/03/17 09:08:36;;;;;;;0.30;0.30;;;;;;;;;;5065775;28;20048;-61
2022/03/17 09:11:01;;;;;;;0.30;0.30;;;;;;;;;;5065292;28;20269;-61
2022/03/17 09:13:28;;;;;;;0.30;0.30;;;;;;;;;;5066188;28;20041;-61
2022/03/17 09:15:54;;;;;;;0.20;0.20;;;;;;;;;;5064940;28;20082;-62
2022/03/17 09:18:21;;;;;;;0.32;0.32;;;;;;;;;;5063996;28;20108;-61
2022/03/17 09:20:46;;;;;;;0.30;0.30;;;;;;;;;;5065790;28;20037;-60
2022/03/17 09:23:12;;;;;;;0.30;0.30;;;;;;;;;;5064736;28;20064;-61
2022/03/17 09:25:38;;;;;;;0.20;0.20;;;;;;;;;;5066114;28;20391;-60
2022/03/17 09:28:04;;;;;;;2.42;1.95;;;;;;;;;;5064956;28;20032;-61
2022/03/17 09:30:29;;;;;;;0.28;0.28;;;;;;;;;;5065312;28;20024;-61
2022/03/17 09:32:55;;;;;;;0.30;0.30;;;;;;;;;;5066224;28;20031;-61
2022/03/17 09:35:22;;;;;;;0.30;0.30;;;;;;;;;;5065865;28;20123;-61
2022/03/17 09:37:47;;;;;;;0.20;0.20;;;;;;;;;;5066266;28;20029;-61
2022/03/17 09:40:13;;;;;;;0.30;0.30;;;;;;;;;;5065775;28;20585;-61
2022/03/17 09:42:39;;;;;;;0.30;0.30;;;;;;;;;;5065852;28;20523;-61
2022/03/17 09:45:05;;;;;;;0.22;0.22;;;;;;;;;;5065585;28;20047;-61
2022/03/17 09:47:36;;;;;;;0.30;0.30;;;;;;;;;;5065935;28;20087;-60
2022/03/17 09:50:02;;;;;;;0.47;0.47;;;;;;;;;;5065438;28;20125;-62
2022/03/17 09:52:28;;;;;;;0.32;0.32;;;;;;;;;;5065432;28;20388;-60
2022/03/17 09:54:53;;;;;;;0.30;0.30;;;;;;;;;;5065735;28;20028;-61
2022/03/17 09:57:19;;;;;;;0.20;0.20;;;;;;;;;;5065594;28;20898;-61
2022/03/17 09:59:49;;;;;;;0.30;0.30;;;;;;;;;;5065477;28;20020;-62
2022/03/17 10:02:16;;;;;;;0.30;0.30;;;;;;;;;;5065563;28;20036;-62
2022/03/17 10:04:44;;;;;;;0.30;0.30;;;;;;;;;;5068444;28;20068;-61
2022/03/17 10:07:09;;;;;;;0.22;0.22;;;;;;;;;;5068634;28;20455;-61
2022/03/17 10:09:35;;;;;;;0.28;0.28;;;;;;;;;;5069484;28;20040;-62
2022/03/17 10:12:02;;;;;;;0.20;0.20;;;;;;;;;;5070825;28;20032;-61
2022/03/17 10:14:40;;;;;;;0.32;0.32;;;;;;;;;;5070220;28;20041;-62
2022/03/17 10:17:07;;;;;;;0.30;0.30;;;;;;;;;;5070776;28;20476;-61
2022/03/17 10:19:33;;;;;;;0.40;0.40;;;;;;;;;;5070591;28;20029;-62
2022/03/17 10:22:14;;;;;;;0.30;0.30;;;;;;;;;;5070737;28;20119;-62
2022/03/17 10:24:49;;;;;;;0.30;0.30;;;;;;;;;;5070822;28;20043;-62
2022/03/17 10:27:15;;;;;;;0.30;0.30;;;;;;;;;;5068717;28;20033;-63
2022/03/17 10:29:40;;;;;;;0.30;0.30;;;;;;;;;;5068086;28;20055;-63
2022/03/17 10:32:07;;;;;;;0.30;0.30;;;;;;;;;;5068395;28;20032;-63
2022/03/17 10:34:36;;;;;;;0.30;0.30;;;;;;;;;;5070693;28;20040;-63
2022/03/17 10:37:07;;;;;;;0.35;0.35;;;;;;;;;;5070567;28;20045;-62
2022/03/17 10:39:36;;;;;;;0.40;0.40;;;;;;;;;;5070767;28;20048;-62
2022/03/17 10:42:08;;;;;;;0.30;0.30;;;;;;;;;;5070438;28;20068;-63
2022/03/17 10:44:34;;;;;;;0.35;0.35;;;;;;;;;;5070436;28;20431;-62
2022/03/17 10:47:01;;;;;;;4.68;3.60;;;;;;;;;;5052260;28;20048;-62
2022/03/17 10:49:28;;;;;;;0.30;0.30;;;;;;;;;;5070512;28;20024;-62
2022/03/17 10:51:54;;;;;;;0.20;0.20;;;;;;;;;;5070022;28;20075;-62
2022/03/17 10:54:20;;;;;;;0.30;0.30;;;;;;;;;;5069894;28;20123;-62
2022/03/17 10:56:58;;;;;;;0.30;0.30;;;;;;;;;;5069959;28;20033;-62
2022/03/17 10:59:34;;;;;;;0.30;0.30;;;;;;;;;;5070088;28;20036;-62
2022/03/17 11:02:03;;;;;;;2.50;1.10;;;;;;;;;;5070223;28;20037;-62
2022/03/17 11:04:29;;;;;;;0.32;0.32;;;;;;;;;;5069840;28;20483;-62
2022/03/17 11:06:54;;;;;;;0.30;0.30;;;;;;;;;;5070085;28;20043;-61
2022/03/17 11:09:23;;;;;;;6.07;2.53;;;;;;;;;;5069579;28;20036;-62
2022/03/17 11:11:49;;;;;;;0.30;0.30;;;;;;;;;;5069947;28;20079;-62
2022/03/17 11:14:14;;;;;;;0.20;0.20;;;;;;;;;;5068913;28;20123;-62
2022/03/17 11:16:42;;;;;;;0.30;0.30;;;;;;;;;;5035420;28;20135;-62
2022/03/17 11:19:12;;;;;;;0.40;0.40;;;;;;;;;;5070005;28;20040;-61
2022/03/17 11:21:38;;;;;;;0.60;0.60;;;;;;;;;;5069847;28;20028;-62
2022/03/17 11:24:07;;;;;;;0.30;0.30;;;;;;;;;;5069823;28;20436;-62
2022/03/17 11:26:34;;;;;;;;;;;;;;;;;;5070208;28;20957;-61
2022/03/17 11:29:18;;;;;;;0.20;0.20;;;;;;;;;;5069671;28;20294;-62
2022/03/17 11:31:51;;;;;;;0.40;0.40;;;;;;;;;;5069579;28;20036;-61
2022/03/17 11:34:46;;;;;;;0.30;0.30;;;;;;;;;;5069013;28;20446;-62
2022/03/17 11:37:17;;;;;;;0.30;0.30;;;;;;;;;;5069519;28;20032;-61
2022/03/17 11:39:49;;;;;;;0.28;0.28;;;;;;;;;;5069756;28;20040;-61
2022/03/17 11:42:34;;;;;;;2.35;0.80;;;;;;;;;;5069070;28;20526;-62
2022/03/17 11:45:23;;;;;;;0.43;0.43;;;;;;;;;;5069093;28;20063;-61
2022/03/17 11:47:50;;;;;;;2.83;0.40;;;;;;;;;;5058949;28;20096;-62
2022/03/17 11:50:26;;;;;;;0.30;0.30;;;;;;;;;;5069265;28;20499;-63
2022/03/17 11:53:02;;;;;;;3.13;2.45;;;;;;;;;;5069574;28;20067;-61
2022/03/17 11:55:33;;;;;;;0.52;0.52;;;;;;;;;;5068830;28;20078;-62
2022/03/17 11:58:17;;;;;;;3.00;2.38;;;;;;;;;;5068968;28;20473;-61
2022/03/17 12:00:46;;;;;;;8.05;4.85;;;;;;;;;;5069335;28;20045;-61
2022/03/17 12:03:12;;;;;;;0.50;0.50;;;;;;;;;;5068570;28;20029;-61
2022/03/17 12:05:38;;;;;;;0.55;0.47;;;;;;;;;;5071362;28;20116;-61
2022/03/17 12:08:04;;;;;;;17.50;5.72;;;;;;;;;;5086998;28;20082;-63
2022/03/17 12:10:49;;;;;;;0.50;0.47;;;;;;;;;;5086706;28;20020;-61
2022/03/17 12:13:24;;;;;;;2.45;1.95;;;;;;;;;;5088639;28;20039;-62
2022/03/17 12:15:56;;;;;;;0.43;0.43;;;;;;;;;;5089215;28;20047;-61
2022/03/17 12:18:21;;;;;;;1.40;1.08;;;;;;;;;;5087959;28;20032;-62
2022/03/17 12:20:47;;;;;;;2.20;1.45;;;;;;;;;;5088491;28;20028;-61
2022/03/17 12:23:31;;;;;;;0.40;0.40;;;;;;;;;;5070613;28;20019;-61
2022/03/17 12:26:03;;;;;;;2.88;2.60;;;;;;;;;;5086387;28;20040;-61
2022/03/17 12:28:30;;;;;;;0.40;0.40;;;;;;;;;;5088557;28;20047;-61
2022/03/17 12:30:56;;;;;;;2.70;0.95;;;;;;;;;;5087099;28;20031;-62
2022/03/17 12:33:22;;;;;;;8.45;3.13;;;;;;;;;;5088494;28;20047;-62
2022/03/17 12:36:02;;;;;;;6.72;4.55;;;;;;;;;;5089184;28;20040;-61
2022/03/17 12:38:27;;;;;;;3.08;2.63;;;;;;;;;;5088712;28;20480;-62
2022/03/17 12:40:53;;;;;;;0.43;0.43;;;;;;;;;;5082975;28;20032;-61
2022/03/17 12:43:20;;;;;;;1.05;0.88;;;;;;;;;;5068470;28;20859;-62
2022/03/17 12:45:47;;;;;;;0.30;0.30;;;;;;;;;;5068734;28;20069;-63
2022/03/17 12:48:12;;;;;;;6.13;2.75;;;;;;;;;;5068216;28;20082;-61
2022/03/17 12:50:38;;;;;;;0.20;0.20;;;;;;;;;;5072716;28;20074;-61
2022/03/17 12:53:04;;;;;;;0.30;0.30;;;;;;;;;;5088819;28;20154;-62
2022/03/17 12:55:29;;;;;;;4.00;2.85;;;;;;;;;;5088276;28;20044;-62
2022/03/17 12:57:55;;;;;;;6.60;2.83;;;;;;;;;;5088527;28;20073;-62
2022/03/17 13:00:23;;;;;;;1.40;1.30;;;;;;;;;;5086361;28;20031;-61
2022/03/17 13:02:56;;;;;;;2.08;0.52;;;;;;;;;;5068304;28;20032;-61
2022/03/17 13:08:07;;;;;;;0.43;0.43;;;;;;;;;;5068015;28;20033;-64
2022/03/17 13:14:20;;;;;;;1.05;1.00;;;;;;;;;;5067819;28;20384;-61
2022/03/17 13:16:03;;;;;;;0.57;0.57;;;;;;;;;;5068311;28;20036;-62
2022/03/17 13:18:47;;;;;;;0.20;0.20;;;;;;;;;;5068108;28;20033;-62
2022/03/17 13:21:13;;;;;;;0.40;0.40;;;;;;;;;;5068241;28;20032;-63
2022/03/17 13:23:39;;;;;;;0.38;0.38;;;;;;;;;;5068158;28;20388;-62
2022/03/17 13:26:04;;;;;;;2.85;2.53;;;;;;;;;;5067916;28;20039;-63
2022/03/17 13:28:30;;;;;;;1.08;0.90;;;;;;;;;;5067766;28;20037;-62
2022/03/17 13:30:56;;;;;;;0.30;0.30;;;;;;;;;;5067914;28;20028;-62
2022/03/17 13:33:26;;;;;;;2.80;1.92;;;;;;;;;;5049641;28;20150;-62
2022/03/17 13:35:51;;;;;;;2.00;1.17;;;;;;;;;;5067717;28;21079;-63
2022/03/17 13:38:19;;;;;;;0.60;0.60;;;;;;;;;;5070928;28;20032;-63
2022/03/17 13:40:45;;;;;;;0.60;0.60;;;;;;;;;;5071329;28;20039;-63
2022/03/17 13:43:12;;;;;;;2.17;1.30;;;;;;;;;;5071465;28;20037;-62
2022/03/17 13:45:39;;;;;;;0.40;0.40;;;;;;;;;;5071580;28;20044;-62
2022/03/17 13:48:14;;;;;;;0.20;0.20;;;;;;;;;;5071287;28;20129;-62
2022/03/17 13:50:46;;;;;;;4.28;3.10;;;;;;;;;;5071320;28;20127;-63
2022/03/17 13:53:12;;;;;;;4.03;2.03;;;;;;;;;;5070970;28;20031;-63
2022/03/17 13:55:37;;;;;;;1.67;1.58;;;;;;;;;;5071252;28;20024;-62
2022/03/17 13:58:16;;;;;;;2.45;1.92;;;;;;;;;;5073708;28;20040;-61
2022/03/17 14:00:42;;;;;;;4.72;3.25;;;;;;;;;;5079314;28;20063;-61
2022/03/17 14:03:14;;;;;;;1.92;1.27;;;;;;;;;;5091050;28;20028;-62
2022/03/17 14:05:58;;;;;;;0.20;0.20;;;;;;;;;;5091302;28;20058;-61
2022/03/17 14:08:24;;;;;;;0.22;0.22;;;;;;;;;;5091084;28;20031;-61
2022/03/17 14:10:49;;;;;;;0.47;0.47;;;;;;;;;;5079664;28;20169;-61
2022/03/17 14:13:15;;;;;;;3.50;0.77;;;;;;;;;;5086941;28;20028;-62
2022/03/17 14:15:41;;;;;;;0.45;0.45;;;;;;;;;;5071642;28;20033;-62
2022/03/17 14:18:06;;;;;;;0.88;0.88;;;;;;;;;;5069794;28;20055;-63
2022/03/17 14:20:32;;;;;;;0.70;0.70;;;;;;;;;;5070589;28;20036;-62
2022/03/17 14:25:42;;;;;;;0.30;0.30;;;;;;;;;;5070444;28;20123;-62
2022/03/17 14:28:08;;;;;;;0.30;0.30;;;;;;;;;;5070251;28;20111;-63
2022/03/17 14:30:34;;;;;;;1.70;1.52;;;;;;;;;;5070572;28;20052;-63
2022/03/17 14:33:01;;;;;;;0.30;0.30;;;;;;;;;;5068902;28;20051;-62
2022/03/17 14:35:27;;;;;;;0.40;0.40;;;;;;;;;;5068120;28;20078;-62
2022/03/17 14:37:53;;;;;;;1.98;1.10;;;;;;;;;;5068243;28;20075;-63
2022/03/17 14:40:20;;;;;;;0.30;0.30;;;;;;;;;;5068183;28;20091;-62
2022/03/17 14:42:49;;;;;;;0.30;0.30;;;;;;;;;;5068298;28;20063;-62
2022/03/17 14:45:14;;;;;;;0.20;0.20;;;;;;;;;;5068318;28;20033;-62
2022/03/17 14:47:40;;;;;;;0.20;0.20;;;;;;;;;;5068861;28;20043;-63
2022/03/17 14:50:06;;;;;;;0.88;0.88;;;;;;;;;;5069911;28;20050;-62
2022/03/17 14:52:32;;;;;;;0.28;0.28;;;;;;;;;;5070292;28;20087;-62
2022/03/17 14:54:58;;;;;;;0.30;0.30;;;;;;;;;;5069872;28;20032;-62
2022/03/17 14:57:24;;;;;;;0.30;0.30;;;;;;;;;;5069798;28;20064;-62
2022/03/17 14:59:51;;;;;;;0.28;0.28;;;;;;;;;;5069996;28;20098;-62
2022/03/17 15:02:17;;;;;;;0.98;0.98;;;;;;;;;;5068860;28;20392;-62
2022/03/17 15:04:43;;;;;;;0.30;0.30;;;;;;;;;;5069906;28;20043;-62
2022/03/17 15:07:10;;;;;;;0.30;0.30;;;;;;;;;;5052040;28;20506;-63
2022/03/17 15:09:36;;;;;;;0.30;0.30;;;;;;;;;;5069950;28;20111;-62